Time;durP1;ratioP1;P1;durP2;ratioP2;P2;SDS_P1;SDS_P2;PMS_P1;PMS_P2;Temp;Humidity;BMP_temperature;BMP_pressure;BME280_temperature;BME280_humidity;BME280_pressure;Samples;Min_cycle;Max_cycle;Signal;HPM_P1;HPM_P2
2023/08/06 00:01:33;;;;;;;4.50;3.00;;;;;;;;;;5018785;28;20126;-87
2023/08/06 00:04:00;;;;;;;6.75;3.28;;;;;;;;;;5018383;28;20046;-86
2023/08/06 00:06:28;;;;;;;4.57;2.97;;;;;;;;;;5019994;28;20145;-86
2023/08/06 00:08:55;;;;;;;6.00;3.75;;;;;;;;;;5019456;28;20112;-87
2023/08/06 00:11:23;;;;;;;4.88;3.58;;;;;;;;;;5021794;28;20117;-87
2023/08/06 00:13:50;;;;;;;4.65;3.42;;;;;;;;;;5023777;28;20053;-87
2023/08/06 00:16:23;;;;;;;7.15;4.00;;;;;;;;;;5021328;28;20050;-87
2023/08/06 00:18:50;;;;;;;4.68;3.42;;;;;;;;;;5018806;28;20057;-87
2023/08/06 00:21:23;;;;;;;5.57;3.20;;;;;;;;;;5020671;28;20058;-87
2023/08/06 00:23:52;;;;;;;5.03;3.63;;;;;;;;;;5019950;28;20045;-87
2023/08/06 00:26:21;;;;;;;5.28;3.40;;;;;;;;;;5020210;28;20065;-87
2023/08/06 00:28:47;;;;;;;4.78;3.50;;;;;;;;;;5022505;28;20247;-87
2023/08/06 00:31:19;;;;;;;4.35;3.15;;;;;;;;;;5021239;28;20053;-87
2023/08/06 00:33:50;;;;;;;6.85;3.22;;;;;;;;;;5019584;28;20051;-87
2023/08/06 00:36:17;;;;;;;4.40;3.42;;;;;;;;;;5019693;28;20046;-87
2023/08/06 00:38:47;;;;;;;7.57;3.80;;;;;;;;;;5016872;28;20046;-87
2023/08/06 00:41:14;;;;;;;5.10;2.95;;;;;;;;;;5017226;28;20119;-87
2023/08/06 00:43:43;;;;;;;5.22;3.65;;;;;;;;;;5019261;28;20119;-87
2023/08/06 00:46:10;;;;;;;4.55;3.45;;;;;;;;;;5019775;28;20057;-87
2023/08/06 00:48:37;;;;;;;5.38;3.53;;;;;;;;;;5016980;28;20054;-87
2023/08/06 00:51:04;;;;;;;3.30;2.88;;;;;;;;;;5018449;28;20177;-87
2023/08/06 00:53:31;;;;;;;5.53;4.20;;;;;;;;;;5018366;28;20042;-87
2023/08/06 00:56:02;;;;;;;4.38;3.35;;;;;;;;;;5017343;28;20065;-87
2023/08/06 00:58:29;;;;;;;5.30;3.85;;;;;;;;;;5017255;28;20050;-88
2023/08/06 01:00:55;;;;;;;7.80;3.58;;;;;;;;;;5020115;28;20077;-87
2023/08/06 01:03:22;;;;;;;6.05;3.72;;;;;;;;;;5020724;28;20053;-88
2023/08/06 01:05:49;;;;;;;5.72;4.00;;;;;;;;;;5023579;28;20518;-88
2023/08/06 01:08:30;;;;;;;9.38;4.78;;;;;;;;;;5019620;28;20046;-87
2023/08/06 01:11:29;;;;;;;8.45;4.78;;;;;;;;;;5000226;28;20152;-87
2023/08/06 01:14:04;;;;;;;12.32;6.55;;;;;;;;;;4989790;28;20061;-86
2023/08/06 01:16:34;;;;;;;13.52;5.22;;;;;;;;;;5001929;28;20050;-87
2023/08/06 01:19:04;;;;;;;9.90;5.72;;;;;;;;;;5000216;28;20165;-87
2023/08/06 01:21:31;;;;;;;9.18;5.28;;;;;;;;;;4999059;28;20418;-87
2023/08/06 01:24:01;;;;;;;9.32;5.07;;;;;;;;;;5018070;28;20080;-88
2023/08/06 01:26:42;;;;;;;11.70;5.47;;;;;;;;;;5018614;28;20045;-86
2023/08/06 01:29:12;;;;;;;9.52;5.03;;;;;;;;;;5019926;28;20061;-87
2023/08/06 01:31:41;;;;;;;6.85;4.63;;;;;;;;;;5003613;28;20072;-87
2023/08/06 01:34:17;;;;;;;10.10;5.70;;;;;;;;;;5006313;28;20098;-87
2023/08/06 01:36:48;;;;;;;9.82;5.05;;;;;;;;;;5019537;28;20253;-87
2023/08/06 01:39:15;;;;;;;10.18;5.07;;;;;;;;;;5024259;28;20053;-87
2023/08/06 01:41:42;;;;;;;11.60;4.65;;;;;;;;;;5006152;28;20410;-87
2023/08/06 01:44:09;;;;;;;8.70;3.92;;;;;;;;;;5006923;28;20092;-87
2023/08/06 01:46:36;;;;;;;5.78;3.63;;;;;;;;;;5004569;28;20237;-87
2023/08/06 01:49:06;;;;;;;5.00;3.22;;;;;;;;;;5005158;28;20311;-86
2023/08/06 01:51:33;;;;;;;6.90;3.97;;;;;;;;;;5030372;28;20210;-87
2023/08/06 01:54:03;;;;;;;5.85;3.88;;;;;;;;;;5027930;28;20137;-87
2023/08/06 01:56:30;;;;;;;10.25;4.40;;;;;;;;;;5022421;28;20128;-87
2023/08/06 01:58:57;;;;;;;8.70;4.10;;;;;;;;;;5011048;28;20050;-87
2023/08/06 02:01:24;;;;;;;13.98;4.05;;;;;;;;;;5007151;28;20058;-87
2023/08/06 02:03:54;;;;;;;5.65;3.80;;;;;;;;;;5023136;28;20318;-87
2023/08/06 02:06:27;;;;;;;6.82;4.03;;;;;;;;;;5021672;28;20136;-87
2023/08/06 02:08:54;;;;;;;5.78;3.60;;;;;;;;;;5006561;28;20069;-87
2023/08/06 02:11:26;;;;;;;12.02;4.75;;;;;;;;;;5022887;28;20049;-87
2023/08/06 02:13:54;;;;;;;7.40;4.32;;;;;;;;;;5021479;28;20073;-87
2023/08/06 02:16:21;;;;;;;7.07;4.55;;;;;;;;;;5019392;28;20050;-88
2023/08/06 02:18:48;;;;;;;5.85;3.70;;;;;;;;;;5021383;28;20058;-88
2023/08/06 02:21:17;;;;;;;5.85;4.13;;;;;;;;;;5019620;28;20057;-87
2023/08/06 02:24:00;;;;;;;7.28;4.78;;;;;;;;;;5023308;28;20077;-88
2023/08/06 02:26:27;;;;;;;5.60;3.83;;;;;;;;;;5024256;28;20337;-87
2023/08/06 02:28:54;;;;;;;8.50;4.50;;;;;;;;;;5023231;28;20054;-87
2023/08/06 02:31:21;;;;;;;6.30;4.45;;;;;;;;;;5023606;28;20117;-87
2023/08/06 02:33:49;;;;;;;7.13;4.85;;;;;;;;;;5023146;28;20109;-87
2023/08/06 02:36:16;;;;;;;8.48;4.82;;;;;;;;;;5021063;28;20133;-87
2023/08/06 02:38:43;;;;;;;6.78;4.97;;;;;;;;;;5021721;28;20054;-87
2023/08/06 02:41:11;;;;;;;12.05;5.75;;;;;;;;;;5021681;28;20304;-87
2023/08/06 02:43:39;;;;;;;12.25;5.50;;;;;;;;;;5020293;28;20065;-87
2023/08/06 02:46:12;;;;;;;8.75;5.15;;;;;;;;;;5021431;28;20054;-87
2023/08/06 02:48:39;;;;;;;9.30;5.55;;;;;;;;;;5021573;28;20104;-87
2023/08/06 02:51:06;;;;;;;8.02;5.07;;;;;;;;;;5021448;28;20065;-87
2023/08/06 02:53:33;;;;;;;7.60;5.88;;;;;;;;;;5021493;28;20061;-87
2023/08/06 02:56:00;;;;;;;9.35;6.85;;;;;;;;;;5022342;28;20128;-87
2023/08/06 02:58:26;;;;;;;11.77;6.82;;;;;;;;;;5025228;28;20053;-87
2023/08/06 03:01:03;;;;;;;10.48;7.55;;;;;;;;;;5022013;28;20054;-86
2023/08/06 03:03:31;;;;;;;9.85;7.03;;;;;;;;;;5021922;28;20092;-87
2023/08/06 03:05:58;;;;;;;13.23;8.55;;;;;;;;;;5020908;28;20120;-87
2023/08/06 03:08:25;;;;;;;14.82;7.57;;;;;;;;;;5019972;28;20057;-87
2023/08/06 03:10:52;;;;;;;8.73;7.05;;;;;;;;;;5020155;28;20383;-87
2023/08/06 03:13:19;;;;;;;7.88;6.43;;;;;;;;;;5003947;28;20093;-87
2023/08/06 03:15:55;;;;;;;10.15;7.28;;;;;;;;;;5005119;28;20072;-87
2023/08/06 03:18:22;;;;;;;6.95;5.75;;;;;;;;;;5021030;28;20053;-87
2023/08/06 03:20:49;;;;;;;10.77;6.22;;;;;;;;;;5003138;28;20066;-86
2023/08/06 03:23:16;;;;;;;9.40;6.10;;;;;;;;;;5004717;28;20052;-87
2023/08/06 03:25:44;;;;;;;8.48;5.80;;;;;;;;;;5020612;28;20052;-87
2023/08/06 03:28:11;;;;;;;12.15;7.07;;;;;;;;;;5021156;28;20054;-87
2023/08/06 03:30:39;;;;;;;11.48;7.85;;;;;;;;;;5019782;28;20448;-87
2023/08/06 03:33:05;;;;;;;12.40;8.20;;;;;;;;;;5004371;28;20045;-86
2023/08/06 03:35:33;;;;;;;11.32;8.30;;;;;;;;;;5005573;28;20092;-87
2023/08/06 03:38:02;;;;;;;13.57;8.15;;;;;;;;;;5004772;28;20069;-87
2023/08/06 03:40:29;;;;;;;11.70;8.60;;;;;;;;;;5021683;28;20425;-87
2023/08/06 03:42:56;;;;;;;10.55;7.70;;;;;;;;;;5009504;28;20072;-87
2023/08/06 03:45:26;;;;;;;12.65;8.85;;;;;;;;;;5008062;28;20139;-87
2023/08/06 03:47:53;;;;;;;10.73;7.47;;;;;;;;;;5004805;28;20057;-87
2023/08/06 03:50:23;;;;;;;8.48;6.53;;;;;;;;;;5005354;28;20100;-87
2023/08/06 03:52:50;;;;;;;11.15;6.95;;;;;;;;;;5006503;28;20435;-87
2023/08/06 03:55:19;;;;;;;11.38;6.75;;;;;;;;;;5005468;28;20042;-86
2023/08/06 03:57:47;;;;;;;9.05;6.53;;;;;;;;;;5022783;28;20053;-87
2023/08/06 04:00:13;;;;;;;10.82;6.68;;;;;;;;;;5017007;28;20050;-87
2023/08/06 04:02:54;;;;;;;8.90;6.47;;;;;;;;;;5020047;28;20065;-87
2023/08/06 04:05:31;;;;;;;8.32;6.22;;;;;;;;;;5020168;28;20088;-87
2023/08/06 04:07:57;;;;;;;14.52;6.45;;;;;;;;;;5002458;28;20065;-87
2023/08/06 04:10:52;;;;;;;10.00;7.50;;;;;;;;;;5018981;28;20587;-87
2023/08/06 04:13:20;;;;;;;11.65;7.47;;;;;;;;;;5021890;28;20085;-87
2023/08/06 04:15:47;;;;;;;13.38;8.02;;;;;;;;;;5019526;28;20059;-87
2023/08/06 04:18:14;;;;;;;11.57;7.22;;;;;;;;;;5021184;28;20433;-87
2023/08/06 04:20:46;;;;;;;11.25;7.45;;;;;;;;;;5026625;28;20100;-87
2023/08/06 04:23:14;;;;;;;10.90;7.30;;;;;;;;;;5029310;28;20065;-87
2023/08/06 04:25:41;;;;;;;9.73;6.80;;;;;;;;;;5025923;28;20049;-87
2023/08/06 04:28:08;;;;;;;9.68;7.22;;;;;;;;;;5019539;28;20053;-86
2023/08/06 04:30:36;;;;;;;9.00;6.60;;;;;;;;;;5019630;28;20140;-86
2023/08/06 04:33:04;;;;;;;10.52;7.82;;;;;;;;;;5020536;28;20105;-87
2023/08/06 04:35:31;;;;;;;12.23;7.00;;;;;;;;;;5020060;28;20302;-86
2023/08/06 04:37:58;;;;;;;9.43;7.22;;;;;;;;;;5017939;28;20065;-86
2023/08/06 04:40:26;;;;;;;10.38;6.40;;;;;;;;;;5020171;28;20050;-86
2023/08/06 04:42:57;;;;;;;10.98;8.15;;;;;;;;;;5019473;28;20058;-87
2023/08/06 04:45:24;;;;;;;13.77;7.72;;;;;;;;;;5021694;28;20183;-86
2023/08/06 04:47:51;;;;;;;10.00;7.50;;;;;;;;;;5020889;28;20359;-86
2023/08/06 04:50:19;;;;;;;9.63;7.78;;;;;;;;;;5018453;28;20052;-86
2023/08/06 04:52:46;;;;;;;9.55;7.18;;;;;;;;;;5017468;28;20046;-86
2023/08/06 04:55:13;;;;;;;11.65;8.00;;;;;;;;;;5020711;28;20084;-87
2023/08/06 04:57:41;;;;;;;13.85;7.95;;;;;;;;;;5018220;28;20144;-87
2023/08/06 05:00:08;;;;;;;10.50;7.20;;;;;;;;;;5019015;28;20049;-87
2023/08/06 05:02:37;;;;;;;10.88;7.70;;;;;;;;;;5024215;28;20296;-88
2023/08/06 05:05:05;;;;;;;12.30;7.38;;;;;;;;;;5018755;28;20046;-87
2023/08/06 05:07:32;;;;;;;13.75;8.57;;;;;;;;;;5021347;28;20058;-87
2023/08/06 05:10:00;;;;;;;11.75;8.82;;;;;;;;;;5021388;28;20045;-88
2023/08/06 05:12:27;;;;;;;14.02;8.43;;;;;;;;;;5023238;28;20392;-87
2023/08/06 05:14:55;;;;;;;12.38;8.00;;;;;;;;;;5024822;28;20100;-87
2023/08/06 05:17:23;;;;;;;13.45;8.55;;;;;;;;;;5023508;28;20317;-87
2023/08/06 05:19:53;;;;;;;12.70;7.82;;;;;;;;;;5021744;28;20061;-87
2023/08/06 05:22:21;;;;;;;11.27;8.52;;;;;;;;;;5037842;28;20038;-88
2023/08/06 05:25:02;;;;;;;11.70;8.50;;;;;;;;;;5036797;28;20080;-86
2023/08/06 05:27:29;;;;;;;10.68;8.13;;;;;;;;;;5038141;28;20050;-88
2023/08/06 05:30:07;;;;;;;16.63;8.70;;;;;;;;;;5038094;28;20077;-88
2023/08/06 05:32:48;;;;;;;13.50;8.75;;;;;;;;;;5035823;28;20054;-86
2023/08/06 05:35:15;;;;;;;15.82;9.43;;;;;;;;;;5023922;28;20425;-86
2023/08/06 05:37:42;;;;;;;13.13;8.75;;;;;;;;;;5024466;28;20081;-86
2023/08/06 05:40:09;;;;;;;14.40;8.40;;;;;;;;;;5025400;28;20068;-86
2023/08/06 05:42:39;;;;;;;13.63;9.30;;;;;;;;;;5027463;28;20084;-87
2023/08/06 05:45:07;;;;;;;12.73;8.25;;;;;;;;;;5023669;28;20262;-87
2023/08/06 05:47:34;;;;;;;13.02;8.38;;;;;;;;;;5020989;28;20114;-87
2023/08/06 05:50:01;;;;;;;10.75;8.25;;;;;;;;;;5024273;28;20145;-86
2023/08/06 05:52:28;;;;;;;11.98;8.10;;;;;;;;;;5023077;28;20382;-87
2023/08/06 05:54:56;;;;;;;14.13;7.90;;;;;;;;;;5024066;28;20112;-87
2023/08/06 05:57:22;;;;;;;9.25;7.70;;;;;;;;;;5022085;28;20110;-87
2023/08/06 05:59:49;;;;;;;9.63;6.53;;;;;;;;;;5023732;28;20050;-87
2023/08/06 06:02:18;;;;;;;10.68;7.20;;;;;;;;;;5035413;28;20050;-87
2023/08/06 06:04:48;;;;;;;12.13;8.40;;;;;;;;;;5035420;28;20272;-87
2023/08/06 06:07:20;;;;;;;9.25;6.32;;;;;;;;;;5034903;28;20038;-87
2023/08/06 06:10:04;;;;;;;8.88;6.57;;;;;;;;;;5034889;28;20134;-87
2023/08/06 06:12:38;;;;;;;10.70;6.50;;;;;;;;;;5033794;28;20061;-87
2023/08/06 06:15:05;;;;;;;10.23;5.80;;;;;;;;;;5034909;28;20068;-87
2023/08/06 06:17:35;;;;;;;10.43;6.32;;;;;;;;;;5032440;28;20065;-87
2023/08/06 06:20:18;;;;;;;12.80;5.88;;;;;;;;;;5017715;28;20046;-87
2023/08/06 06:22:45;;;;;;;12.80;5.38;;;;;;;;;;5032598;28;20042;-87
2023/08/06 06:25:13;;;;;;;12.80;5.28;;;;;;;;;;5031986;28;20082;-87
2023/08/06 06:27:47;;;;;;;7.78;5.07;;;;;;;;;;5031854;28;20101;-87
2023/08/06 06:30:27;;;;;;;;;;;;;;;;;;5031798;28;20126;-86
2023/08/06 06:33:00;;;;;;;7.75;5.30;;;;;;;;;;5033757;28;19989;-87
2023/08/06 06:35:37;;;;;;;8.00;4.88;;;;;;;;;;5034306;28;20050;-87
2023/08/06 06:38:17;;;;;;;7.10;5.03;;;;;;;;;;5017921;28;20045;-86
2023/08/06 06:41:07;;;;;;;6.90;4.63;;;;;;;;;;5032619;28;20046;-87
2023/08/06 06:43:44;;;;;;;6.20;4.85;;;;;;;;;;5017762;28;20097;-86
2023/08/06 06:46:16;;;;;;;7.20;4.53;;;;;;;;;;5017011;28;20050;-86
2023/08/06 06:48:48;;;;;;;7.47;4.78;;;;;;;;;;5015069;28;20058;-87
2023/08/06 06:51:17;;;;;;;5.70;4.18;;;;;;;;;;5014917;28;20050;-85
2023/08/06 06:53:46;;;;;;;9.68;4.95;;;;;;;;;;5036517;28;20053;-86
2023/08/06 06:56:17;;;;;;;7.35;5.10;;;;;;;;;;5031298;28;20060;-87
2023/08/06 06:58:45;;;;;;;9.48;5.13;;;;;;;;;;5030497;28;20069;-86
2023/08/06 07:01:12;;;;;;;6.05;4.80;;;;;;;;;;5030929;28;20061;-86
2023/08/06 07:03:41;;;;;;;5.00;4.43;;;;;;;;;;5014598;28;20049;-87
2023/08/06 07:06:26;;;;;;;6.45;4.80;;;;;;;;;;5030135;28;20126;-86
2023/08/06 07:08:53;;;;;;;6.20;4.80;;;;;;;;;;5031255;28;20076;-87
2023/08/06 07:11:25;;;;;;;5.95;4.80;;;;;;;;;;5027356;28;20249;-87
2023/08/06 07:13:58;;;;;;;8.98;4.72;;;;;;;;;;5028266;28;20049;-87
2023/08/06 07:16:38;;;;;;;4.93;3.72;;;;;;;;;;5028551;28;20057;-86
2023/08/06 07:19:07;;;;;;;4.35;3.95;;;;;;;;;;5029998;28;20117;-87
2023/08/06 07:21:39;;;;;;;5.32;4.03;;;;;;;;;;5027168;28;20046;-87
2023/08/06 07:24:12;;;;;;;8.38;4.18;;;;;;;;;;5026910;28;20053;-87
2023/08/06 07:26:52;;;;;;;5.68;3.80;;;;;;;;;;5027890;28;20058;-87
2023/08/06 07:29:39;;;;;;;5.13;3.35;;;;;;;;;;5026568;28;20109;-86
2023/08/06 07:32:10;;;;;;;4.47;3.55;;;;;;;;;;5029400;28;20155;-87
2023/08/06 07:34:47;;;;;;;4.47;3.17;;;;;;;;;;5026427;28;20058;-88
2023/08/06 07:37:30;;;;;;;4.97;3.47;;;;;;;;;;5026303;28;20072;-86
2023/08/06 07:40:04;;;;;;;3.90;3.10;;;;;;;;;;5027018;28;20083;-86
2023/08/06 07:42:41;;;;;;;4.07;3.30;;;;;;;;;;5025698;28;20061;-86
2023/08/06 07:45:09;;;;;;;3.92;3.00;;;;;;;;;;5026317;28;20183;-86
2023/08/06 07:47:47;;;;;;;4.00;2.83;;;;;;;;;;5023671;28;20058;-87
2023/08/06 07:50:18;;;;;;;4.13;3.30;;;;;;;;;;5022279;28;20256;-87
2023/08/06 07:52:47;;;;;;;5.30;3.50;;;;;;;;;;5024035;28;20109;-86
2023/08/06 07:55:15;;;;;;;3.60;2.92;;;;;;;;;;5042633;28;20046;-87
2023/08/06 07:57:42;;;;;;;4.15;2.65;;;;;;;;;;5026342;28;20177;-86
2023/08/06 08:00:11;;;;;;;4.75;3.35;;;;;;;;;;5025553;28;20046;-87
2023/08/06 08:02:38;;;;;;;3.17;2.75;;;;;;;;;;5024872;28;20057;-87
2023/08/06 08:05:23;;;;;;;4.87;2.87;;;;;;;;;;5025134;28;20057;-87
2023/08/06 08:07:52;;;;;;;4.00;2.65;;;;;;;;;;5024329;28;20496;-86
2023/08/06 08:10:20;;;;;;;4.40;2.95;;;;;;;;;;5040578;28;20239;-86
2023/08/06 08:13:04;;;;;;;3.60;2.72;;;;;;;;;;5024043;28;20050;-88
2023/08/06 08:15:34;;;;;;;3.72;2.83;;;;;;;;;;5023539;28;20104;-86
2023/08/06 08:18:04;;;;;;;4.07;2.80;;;;;;;;;;5023942;28;20160;-88
2023/08/06 08:20:32;;;;;;;4.97;3.90;;;;;;;;;;5023286;28;20056;-87
2023/08/06 08:23:33;;;;;;;6.13;3.80;;;;;;;;;;5023845;28;20076;-87
2023/08/06 08:26:02;;;;;;;7.43;3.10;;;;;;;;;;5022415;28;20050;-86
2023/08/06 08:28:30;;;;;;;8.02;3.33;;;;;;;;;;5021674;28;20050;-87
2023/08/06 08:30:59;;;;;;;6.00;4.18;;;;;;;;;;5021087;28;20433;-88
2023/08/06 08:33:29;;;;;;;5.47;3.10;;;;;;;;;;5023235;28;20060;-87
2023/08/06 08:35:58;;;;;;;4.78;3.17;;;;;;;;;;5021758;28;20061;-86
2023/08/06 08:38:26;;;;;;;5.20;2.83;;;;;;;;;;5023543;28;20093;-87
2023/08/06 08:41:05;;;;;;;6.07;3.70;;;;;;;;;;5019546;28;20136;-87
2023/08/06 08:43:33;;;;;;;7.78;3.50;;;;;;;;;;5028100;28;20088;-88
2023/08/06 08:46:05;;;;;;;6.93;4.32;;;;;;;;;;5025687;28;20049;-89
2023/08/06 08:48:49;;;;;;;10.52;3.67;;;;;;;;;;5025506;28;20137;-87
2023/08/06 08:51:18;;;;;;;6.72;4.15;;;;;;;;;;5024445;28;20117;-88
2023/08/06 08:54:03;;;;;;;5.05;3.35;;;;;;;;;;5020048;28;20045;-88
2023/08/06 08:56:36;;;;;;;6.93;3.13;;;;;;;;;;5021127;28;20034;-87
2023/08/06 08:59:15;;;;;;;5.35;3.08;;;;;;;;;;5003077;28;20057;-87
2023/08/06 09:01:54;;;;;;;5.13;3.53;;;;;;;;;;5004184;28;20181;-88
2023/08/06 09:04:26;;;;;;;6.43;2.83;;;;;;;;;;5017366;28;20050;-88
2023/08/06 09:06:58;;;;;;;3.47;2.63;;;;;;;;;;5018209;28;20042;-87
2023/08/06 09:09:28;;;;;;;6.65;3.38;;;;;;;;;;5001171;28;20084;-87
2023/08/06 09:12:03;;;;;;;3.73;2.77;;;;;;;;;;4988203;28;20061;-87
2023/08/06 09:14:47;;;;;;;5.28;2.88;;;;;;;;;;5006975;28;20042;-87
2023/08/06 09:17:19;;;;;;;3.55;2.60;;;;;;;;;;5009609;28;20056;-86
2023/08/06 09:19:49;;;;;;;4.68;2.30;;;;;;;;;;5004117;28;20061;-87
2023/08/06 09:22:37;;;;;;;4.25;2.50;;;;;;;;;;4999785;28;20133;-86
2023/08/06 09:25:25;;;;;;;3.25;2.10;;;;;;;;;;4986440;28;20042;-85
2023/08/06 09:38:56;;;;;;;1.80;1.40;;;;;;;;;;6273309;22;20110;-86
2023/08/06 09:41:30;;;;;;;3.60;1.55;;;;;;;;;;6261449;23;20292;-85
2023/08/06 09:44:16;;;;;;;1.58;1.08;;;;;;;;;;6239771;23;20024;-86
2023/08/06 09:47:04;;;;;;;2.25;1.20;;;;;;;;;;6240489;22;20024;-87
2023/08/06 09:49:45;;;;;;;3.40;1.48;;;;;;;;;;6239461;23;20015;-86
2023/08/06 09:52:26;;;;;;;2.75;1.30;;;;;;;;;;6240298;23;20277;-85
2023/08/06 09:55:13;;;;;;;2.00;1.30;;;;;;;;;;6262570;23;20193;-87
2023/08/06 09:57:55;;;;;;;2.75;1.55;;;;;;;;;;6264099;22;20016;-87
2023/08/06 10:00:47;;;;;;;2.33;1.50;;;;;;;;;;6238284;23;20031;-85
2023/08/06 10:03:33;;;;;;;1.48;1.00;;;;;;;;;;6238961;23;20020;-86
2023/08/06 10:06:14;;;;;;;1.60;1.00;;;;;;;;;;6265422;22;20008;-87
2023/08/06 10:09:00;;;;;;;1.38;0.98;;;;;;;;;;6262020;23;20068;-86
2023/08/06 10:11:57;;;;;;;0.80;0.80;;;;;;;;;;6263920;23;20012;-85
2023/08/06 10:14:44;;;;;;;2.00;1.10;;;;;;;;;;6239369;23;20258;-86
2023/08/06 10:17:31;;;;;;;1.33;1.08;;;;;;;;;;6241945;22;20010;-86
2023/08/06 10:23:35;;;;;;;3.28;1.00;;;;;;;;;;6247643;23;20019;-86
2023/08/06 10:26:22;;;;;;;1.52;1.20;;;;;;;;;;6240218;23;20082;-87
2023/08/06 10:29:29;;;;;;;2.38;1.08;;;;;;;;;;6237230;23;20229;-86
2023/08/06 10:32:09;;;;;;;;;;;;;;;;;;6234351;23;20082;-86
2023/08/06 10:35:05;;;;;;;1.58;1.10;;;;;;;;;;6237593;23;19922;-86
2023/08/06 10:37:47;;;;;;;2.03;1.23;;;;;;;;;;6215315;23;20031;-87
2023/08/06 10:40:24;;;;;;;2.25;1.10;;;;;;;;;;6201417;23;20034;-87
2023/08/06 10:43:29;;;;;;;2.55;0.85;;;;;;;;;;6224646;23;20131;-86
2023/08/06 10:46:15;;;;;;;3.30;1.00;;;;;;;;;;6203717;23;20029;-87
2023/08/06 10:49:28;;;;;;;1.83;1.33;;;;;;;;;;6205660;23;20017;-86
2023/08/06 10:52:11;;;;;;;1.35;1.15;;;;;;;;;;6208793;23;20017;-86
2023/08/06 10:55:11;;;;;;;1.20;1.00;;;;;;;;;;6208609;23;20055;-86
2023/08/06 10:58:12;;;;;;;1.67;1.10;;;;;;;;;;6230819;23;20051;-86
2023/08/06 11:00:54;;;;;;;2.33;0.93;;;;;;;;;;6201054;23;20030;-87
2023/08/06 11:03:35;;;;;;;1.80;0.80;;;;;;;;;;6204703;23;20023;-86
2023/08/06 11:06:31;;;;;;;1.77;0.80;;;;;;;;;;6224979;23;20031;-87
2023/08/06 11:09:19;;;;;;;1.20;1.00;;;;;;;;;;6231700;23;20301;-87
2023/08/06 11:12:25;;;;;;;2.28;1.05;;;;;;;;;;6206988;23;20011;-87
2023/08/06 11:15:11;;;;;;;1.45;0.90;;;;;;;;;;6227279;23;20016;-87
2023/08/06 11:18:02;;;;;;;1.35;0.80;;;;;;;;;;6206666;23;20036;-88
2023/08/06 11:20:54;;;;;;;1.00;0.80;;;;;;;;;;6204402;23;20021;-87
2023/08/06 11:23:54;;;;;;;1.83;0.70;;;;;;;;;;6204118;23;20024;-87
2023/08/06 11:26:36;;;;;;;0.93;0.70;;;;;;;;;;6207115;23;20023;-87
2023/08/06 11:29:20;;;;;;;1.52;0.60;;;;;;;;;;6234775;23;20035;-89
2023/08/06 11:32:17;;;;;;;1.38;0.60;;;;;;;;;;6236589;23;20035;-88
2023/08/06 11:34:58;;;;;;;0.90;0.82;;;;;;;;;;6239409;23;20065;-89
2023/08/06 11:37:46;;;;;;;1.65;0.60;;;;;;;;;;6214097;23;20085;-88
2023/08/06 11:40:27;;;;;;;2.00;0.98;;;;;;;;;;6209422;23;20055;-90
2023/08/06 11:43:09;;;;;;;1.88;0.77;;;;;;;;;;6235099;23;20048;-88
2023/08/06 11:45:56;;;;;;;1.98;0.95;;;;;;;;;;6213065;23;20025;-89
2023/08/06 11:48:28;;;;;;;1.27;0.85;;;;;;;;;;6213002;23;20043;-90
2023/08/06 11:50:58;;;;;;;2.42;0.80;;;;;;;;;;6208874;23;20031;-88
2023/08/06 11:53:42;;;;;;;0.95;0.82;;;;;;;;;;6235099;23;20009;-88
2023/08/06 11:56:13;;;;;;;1.35;0.52;;;;;;;;;;6211359;23;20051;-88
2023/08/06 11:58:51;;;;;;;1.42;0.70;;;;;;;;;;6236440;23;20085;-90
2023/08/06 12:01:33;;;;;;;1.85;0.70;;;;;;;;;;6212655;23;20154;-89
2023/08/06 12:04:14;;;;;;;2.00;0.80;;;;;;;;;;6210431;23;20024;-89
2023/08/06 12:07:06;;;;;;;1.55;1.00;;;;;;;;;;6208894;23;20016;-89
2023/08/06 12:09:47;;;;;;;0.95;0.85;;;;;;;;;;6208648;23;20017;-86
2023/08/06 12:12:30;;;;;;;1.35;0.70;;;;;;;;;;6204821;23;20031;-88
2023/08/06 12:15:17;;;;;;;1.70;1.00;;;;;;;;;;6203782;23;20017;-86
2023/08/06 12:18:01;;;;;;;1.67;0.85;;;;;;;;;;6226413;23;20028;-87
2023/08/06 12:20:41;;;;;;;1.58;0.85;;;;;;;;;;6203829;23;20048;-87
2023/08/06 12:23:22;;;;;;;1.40;0.82;;;;;;;;;;6203497;23;20016;-86
2023/08/06 12:26:05;;;;;;;1.30;0.88;;;;;;;;;;6230860;23;20021;-87
2023/08/06 12:28:57;;;;;;;1.55;1.08;;;;;;;;;;6203303;23;20031;-88
2023/08/06 12:31:38;;;;;;;1.30;0.80;;;;;;;;;;6204665;23;20017;-87
2023/08/06 12:34:33;;;;;;;0.90;0.73;;;;;;;;;;6228683;23;20020;-89
2023/08/06 12:37:16;;;;;;;1.13;0.70;;;;;;;;;;6219221;23;20047;-87
2023/08/06 12:40:00;;;;;;;1.35;0.60;;;;;;;;;;6236308;23;20051;-88
2023/08/06 12:42:59;;;;;;;1.83;0.80;;;;;;;;;;6245338;22;20004;-89
2023/08/06 12:45:40;;;;;;;1.52;1.10;;;;;;;;;;6243489;23;20019;-89
2023/08/06 12:48:23;;;;;;;1.35;0.90;;;;;;;;;;6241946;22;20028;-88
2023/08/06 12:51:08;;;;;;;1.52;1.00;;;;;;;;;;6241887;22;20042;-89
2023/08/06 12:54:05;;;;;;;0.90;0.70;;;;;;;;;;6243189;22;20012;-88
2023/08/06 12:56:46;;;;;;;5.13;1.40;;;;;;;;;;6241936;23;20012;-89
2023/08/06 12:59:29;;;;;;;2.38;1.10;;;;;;;;;;6264022;22;20028;-89
2023/08/06 13:02:12;;;;;;;2.05;1.38;;;;;;;;;;6266207;22;20189;-89
2023/08/06 13:05:05;;;;;;;3.28;1.20;;;;;;;;;;6267118;22;20024;-89
2023/08/06 13:07:48;;;;;;;2.15;1.20;;;;;;;;;;6266622;22;20045;-90
2023/08/06 13:10:31;;;;;;;3.90;1.30;;;;;;;;;;6244325;23;20016;-89
2023/08/06 13:13:14;;;;;;;3.75;1.30;;;;;;;;;;6236984;23;20146;-89
2023/08/06 13:15:56;;;;;;;2.22;1.30;;;;;;;;;;6267947;22;20022;-89
2023/08/06 13:18:41;;;;;;;1.35;1.25;;;;;;;;;;6243816;23;20027;-89
2023/08/06 13:21:23;;;;;;;1.60;1.50;;;;;;;;;;6243297;23;20016;-89
2023/08/06 13:24:05;;;;;;;1.67;1.20;;;;;;;;;;6267944;22;20171;-89
2023/08/06 13:26:49;;;;;;;7.70;1.35;;;;;;;;;;6245828;22;20016;-90
2023/08/06 13:29:30;;;;;;;2.17;1.25;;;;;;;;;;6266672;23;20030;-89
2023/08/06 13:32:15;;;;;;;2.70;1.38;;;;;;;;;;6246048;23;20008;-89
2023/08/06 13:34:57;;;;;;;2.20;1.23;;;;;;;;;;6269123;22;20012;-89
2023/08/06 13:37:37;;;;;;;5.60;1.40;;;;;;;;;;6229248;23;20099;-89
2023/08/06 13:40:39;;;;;;;1.98;1.30;;;;;;;;;;6214780;23;20032;-88
2023/08/06 13:43:31;;;;;;;2.13;1.20;;;;;;;;;;6237875;23;20015;-89
2023/08/06 13:46:16;;;;;;;1.42;1.10;;;;;;;;;;6214177;23;20019;-89
2023/08/06 13:55:55;;;;;;;3.83;1.13;;;;;;;;;;6240683;23;20040;-87
2023/08/06 13:58:41;;;;;;;3.60;1.27;;;;;;;;;;6227130;23;20009;-90
2023/08/06 14:01:25;;;;;;;2.20;1.20;;;;;;;;;;6214694;23;20227;-88
2023/08/06 14:04:34;;;;;;;1.60;1.20;;;;;;;;;;6237888;23;20039;-89
2023/08/06 14:07:14;;;;;;;2.88;1.20;;;;;;;;;;6216743;23;20008;-89
2023/08/06 14:10:05;;;;;;;2.03;1.30;;;;;;;;;;6217402;23;20005;-89
2023/08/06 14:12:50;;;;;;;2.08;1.50;;;;;;;;;;6215919;23;20017;-87
2023/08/06 14:15:40;;;;;;;2.10;1.00;;;;;;;;;;6216619;23;20005;-88
2023/08/06 14:18:31;;;;;;;2.17;0.80;;;;;;;;;;6217017;23;20124;-92
2023/08/06 14:21:14;;;;;;;3.50;1.35;;;;;;;;;;6205049;23;20009;-87
2023/08/06 14:23:57;;;;;;;2.28;1.20;;;;;;;;;;6214488;23;20004;-87
2023/08/06 14:26:58;;;;;;;2.75;1.30;;;;;;;;;;6238107;23;20015;-88
2023/08/06 14:29:40;;;;;;;0.93;0.93;;;;;;;;;;6218496;23;20023;-87
2023/08/06 14:35:59;;;;;;;2.15;1.00;;;;;;;;;;6242457;23;20069;-88
2023/08/06 14:38:43;;;;;;;;;;;;;;;;;;6216684;23;20017;-88
2023/08/06 14:41:31;;;;;;;2.13;1.20;;;;;;;;;;6235676;23;19961;-87
2023/08/06 14:44:33;;;;;;;1.98;1.08;;;;;;;;;;6215253;23;20025;-88
2023/08/06 14:47:16;;;;;;;2.75;1.30;;;;;;;;;;6236684;23;20017;-88
2023/08/06 14:50:06;;;;;;;2.33;1.20;;;;;;;;;;6214904;23;20032;-87
2023/08/06 14:52:54;;;;;;;2.97;1.25;;;;;;;;;;6216515;23;20024;-90
2023/08/06 14:55:35;;;;;;;1.67;1.20;;;;;;;;;;6217353;23;20009;-89
2023/08/06 14:58:44;;;;;;;1.95;1.30;;;;;;;;;;6219348;23;20021;-88
2023/08/06 15:01:30;;;;;;;4.18;1.30;;;;;;;;;;6219894;23;20004;-90
2023/08/06 15:04:15;;;;;;;4.10;1.47;;;;;;;;;;6218037;23;20084;-89
2023/08/06 15:06:59;;;;;;;1.90;1.38;;;;;;;;;;6241938;23;20447;-88
2023/08/06 15:09:45;;;;;;;2.90;1.42;;;;;;;;;;6218060;23;20048;-89
2023/08/06 15:12:26;;;;;;;3.38;1.10;;;;;;;;;;6218675;23;20004;-91
2023/08/06 15:15:13;;;;;;;3.03;1.75;;;;;;;;;;6217715;23;20004;-90
2023/08/06 15:17:59;;;;;;;3.97;1.30;;;;;;;;;;6240964;23;20028;-90
2023/08/06 15:24:29;;;;;;;2.83;1.90;;;;;;;;;;6243225;23;20040;-89
2023/08/06 15:27:20;;;;;;;2.10;1.58;;;;;;;;;;6240019;23;20023;-89
2023/08/06 15:30:14;;;;;;;3.80;1.42;;;;;;;;;;6217669;23;20004;-89
2023/08/06 15:32:57;;;;;;;4.68;1.60;;;;;;;;;;6217710;23;20011;-89
2023/08/06 15:35:55;;;;;;;4.13;1.48;;;;;;;;;;6217145;23;20012;-89
2023/08/06 15:38:38;;;;;;;4.38;1.58;;;;;;;;;;6245523;23;20012;-88
2023/08/06 15:41:45;;;;;;;1.40;1.30;;;;;;;;;;6270684;22;20012;-88
2023/08/06 15:44:27;;;;;;;3.10;1.60;;;;;;;;;;6248621;22;20008;-89
2023/08/06 15:54:12;;;;;;;4.18;1.60;;;;;;;;;;6214923;22;20123;-89
2023/08/06 15:56:53;;;;;;;2.22;1.42;;;;;;;;;;6247365;22;20020;-89
2023/08/06 15:59:35;;;;;;;2.35;1.50;;;;;;;;;;6247820;22;20011;-90
2023/08/06 16:02:16;;;;;;;4.15;1.73;;;;;;;;;;6247164;22;20004;-89
2023/08/06 16:05:05;;;;;;;4.68;1.80;;;;;;;;;;6244930;22;20006;-88
2023/08/06 16:07:49;;;;;;;4.60;1.92;;;;;;;;;;6267961;22;20058;-89
2023/08/06 16:10:29;;;;;;;2.95;1.58;;;;;;;;;;6246672;22;20004;-89
2023/08/06 16:13:48;;;;;;;6.95;1.88;;;;;;;;;;6268758;22;20019;-89